Aérodrome :
LOGIN :

S'inscrire | Disclaimer

   EN    FR    IT 

 










Légende :    VFR   VFR Marginal   IFR   IFR Intensif   IFR Très Intensif
Visi : 
Plafond : 
>= 8 km
>= 3000ft
5 à 8 km
1000 à 3000 ft
1500m à 5 km
500 à 1000 ft
800 à 1500m
200 à 500 ft
< 800m
< 200 ft
Symboles :   Orages  Brouillard  Fortes neiges  Fortes précipitations  Vent > 20 kt
SIGMETs :   Divers  Orages  Givrage  Turbulence  Onde Orograph.  Cendres Volcan.







- Altitude de l'aérodrome : 0 ft


ENQC - Troll C Platform

DERNIER METAR :
  • 200820Z AUTO 10023KT 9999NDV FEW039/// BKN057/// 13/09 Q1006 W///S4

METARs EXPIRÉS :
  • 200750Z AUTO 10024KT 9999NDV BKN036/// BKN055/// 13/09 Q1006 W///S4
  • 200720Z AUTO 09022KT 9999NDV BKN034/// 12/09 Q1006 W///S4
  • 200650Z AUTO 09022KT 9999NDV -SHRA OVC031/// 12/09 Q1005 W///S4
  • 200620Z AUTO 10023KT 9999NDV OVC031/// 12/09 Q1006 W///S4
  • 200550Z AUTO 09023KT 9999NDV -SHRA OVC029/// 12/09 Q1005 W///S4

TAF N/A
Pas de NOTAMs connus pour ce terrain.



MET'MAP, la Météo Aéronautique d'un coup d'oeil ! - Copyright ORBIFLY Décembre 2007 - Disclaimer

ORBIFLY MET'MAP TEAM :

Programmation & Développement : Alexandra Zaïnal
Conception & Développement : Baudouin d'Aumeries
Co-Programmation & Développement : Marc-Olivier Méhu
Soutien technique & logistique : Manuel Goepfert

Contact : metmap@orbifly.com




SOURCES & CREDITS :

   NOAA